sensor_id;sensor_type;location;lat;lon;timestamp;P1;durP1;ratioP1;P2;durP2;ratioP2
23802;SDS011;12082;51.786;6.018;2023-12-04T00:01:48;296.67;;;279.83;;
23802;SDS011;12082;51.786;6.018;2023-12-04T00:04:14;283.10;;;267.27;;
23802;SDS011;12082;51.786;6.018;2023-12-04T00:06:41;293.23;;;276.40;;
23802;SDS011;12082;51.786;6.018;2023-12-04T00:09:07;287.47;;;271.03;;
23802;SDS011;12082;51.786;6.018;2023-12-04T00:11:32;271.87;;;256.40;;
23802;SDS011;12082;51.786;6.018;2023-12-04T00:13:58;283.03;;;266.77;;
23802;SDS011;12082;51.786;6.018;2023-12-04T00:16:24;268.17;;;252.60;;
23802;SDS011;12082;51.786;6.018;2023-12-04T00:18:50;266.20;;;249.63;;
23802;SDS011;12082;51.786;6.018;2023-12-04T00:21:16;260.67;;;245.43;;
23802;SDS011;12082;51.786;6.018;2023-12-04T00:23:41;258.53;;;242.90;;
23802;SDS011;12082;51.786;6.018;2023-12-04T00:26:07;257.67;;;242.60;;
23802;SDS011;12082;51.786;6.018;2023-12-04T00:28:35;267.27;;;251.37;;
23802;SDS011;12082;51.786;6.018;2023-12-04T00:31:01;267.10;;;250.97;;
23802;SDS011;12082;51.786;6.018;2023-12-04T00:33:26;287.63;;;270.50;;
23802;SDS011;12082;51.786;6.018;2023-12-04T00:35:52;260.43;;;244.80;;
23802;SDS011;12082;51.786;6.018;2023-12-04T00:38:17;241.43;;;227.70;;
23802;SDS011;12082;51.786;6.018;2023-12-04T00:40:43;261.57;;;245.73;;
23802;SDS011;12082;51.786;6.018;2023-12-04T00:43:09;247.07;;;232.50;;
23802;SDS011;12082;51.786;6.018;2023-12-04T00:45:34;259.10;;;243.50;;
23802;SDS011;12082;51.786;6.018;2023-12-04T00:48:00;258.27;;;242.67;;
23802;SDS011;12082;51.786;6.018;2023-12-04T00:50:25;244.83;;;230.37;;
23802;SDS011;12082;51.786;6.018;2023-12-04T00:52:51;251.20;;;236.80;;
23802;SDS011;12082;51.786;6.018;2023-12-04T00:55:17;273.03;;;256.83;;
23802;SDS011;12082;51.786;6.018;2023-12-04T00:57:42;282.90;;;266.20;;
23802;SDS011;12082;51.786;6.018;2023-12-04T01:00:08;311.97;;;292.83;;
23802;SDS011;12082;51.786;6.018;2023-12-04T01:02:34;275.77;;;259.40;;
23802;SDS011;12082;51.786;6.018;2023-12-04T01:04:59;269.80;;;253.57;;
23802;SDS011;12082;51.786;6.018;2023-12-04T01:07:25;290.57;;;272.60;;
23802;SDS011;12082;51.786;6.018;2023-12-04T01:09:50;283.80;;;266.80;;
23802;SDS011;12082;51.786;6.018;2023-12-04T01:12:16;261.30;;;245.30;;
23802;SDS011;12082;51.786;6.018;2023-12-04T01:14:42;262.90;;;247.53;;
23802;SDS011;12082;51.786;6.018;2023-12-04T01:17:07;293.13;;;275.80;;
23802;SDS011;12082;51.786;6.018;2023-12-04T01:19:33;280.03;;;263.43;;
23802;SDS011;12082;51.786;6.018;2023-12-04T01:21:58;267.47;;;251.70;;
23802;SDS011;12082;51.786;6.018;2023-12-04T01:24:24;263.33;;;247.30;;
23802;SDS011;12082;51.786;6.018;2023-12-04T01:26:49;274.43;;;258.00;;
23802;SDS011;12082;51.786;6.018;2023-12-04T01:29:15;296.50;;;279.47;;
23802;SDS011;12082;51.786;6.018;2023-12-04T01:31:40;278.63;;;262.27;;
23802;SDS011;12082;51.786;6.018;2023-12-04T01:34:06;267.40;;;251.53;;
23802;SDS011;12082;51.786;6.018;2023-12-04T01:36:31;292.27;;;274.43;;
23802;SDS011;12082;51.786;6.018;2023-12-04T01:38:57;296.73;;;279.27;;
23802;SDS011;12082;51.786;6.018;2023-12-04T01:41:22;281.70;;;265.40;;
23802;SDS011;12082;51.786;6.018;2023-12-04T01:43:48;291.00;;;273.50;;
23802;SDS011;12082;51.786;6.018;2023-12-04T01:46:14;283.53;;;267.03;;
23802;SDS011;12082;51.786;6.018;2023-12-04T01:48:42;289.13;;;271.87;;
23802;SDS011;12082;51.786;6.018;2023-12-04T01:51:09;308.87;;;290.87;;
23802;SDS011;12082;51.786;6.018;2023-12-04T01:53:36;307.27;;;289.40;;
23802;SDS011;12082;51.786;6.018;2023-12-04T01:56:04;270.50;;;254.60;;
23802;SDS011;12082;51.786;6.018;2023-12-04T01:58:31;288.43;;;271.50;;
23802;SDS011;12082;51.786;6.018;2023-12-04T02:00:57;303.80;;;285.90;;
23802;SDS011;12082;51.786;6.018;2023-12-04T02:03:23;286.47;;;269.60;;
23802;SDS011;12082;51.786;6.018;2023-12-04T02:05:50;315.67;;;296.77;;
23802;SDS011;12082;51.786;6.018;2023-12-04T02:08:16;293.67;;;276.37;;
23802;SDS011;12082;51.786;6.018;2023-12-04T02:10:42;304.00;;;286.37;;
23802;SDS011;12082;51.786;6.018;2023-12-04T02:13:08;335.17;;;315.60;;
23802;SDS011;12082;51.786;6.018;2023-12-04T02:15:34;325.00;;;305.93;;
23802;SDS011;12082;51.786;6.018;2023-12-04T02:18:00;314.60;;;296.80;;
23802;SDS011;12082;51.786;6.018;2023-12-04T02:20:30;335.60;;;316.03;;
23802;SDS011;12082;51.786;6.018;2023-12-04T02:23:00;328.47;;;309.20;;
23802;SDS011;12082;51.786;6.018;2023-12-04T02:25:29;328.93;;;309.40;;
23802;SDS011;12082;51.786;6.018;2023-12-04T02:27:56;349.20;;;328.73;;
23802;SDS011;12082;51.786;6.018;2023-12-04T02:30:24;352.67;;;331.97;;
23802;SDS011;12082;51.786;6.018;2023-12-04T02:32:53;327.27;;;308.17;;
23802;SDS011;12082;51.786;6.018;2023-12-04T02:35:22;350.60;;;329.83;;
23802;SDS011;12082;51.786;6.018;2023-12-04T02:37:51;342.20;;;321.93;;
23802;SDS011;12082;51.786;6.018;2023-12-04T02:40:18;342.80;;;322.73;;
23802;SDS011;12082;51.786;6.018;2023-12-04T02:42:44;362.27;;;341.03;;
23802;SDS011;12082;51.786;6.018;2023-12-04T02:45:10;355.97;;;334.67;;
23802;SDS011;12082;51.786;6.018;2023-12-04T02:47:35;346.27;;;325.90;;
23802;SDS011;12082;51.786;6.018;2023-12-04T02:50:01;331.43;;;311.93;;
23802;SDS011;12082;51.786;6.018;2023-12-04T02:52:26;345.47;;;324.37;;
23802;SDS011;12082;51.786;6.018;2023-12-04T02:54:52;366.87;;;344.93;;
23802;SDS011;12082;51.786;6.018;2023-12-04T02:57:17;354.73;;;333.70;;
23802;SDS011;12082;51.786;6.018;2023-12-04T02:59:43;338.87;;;319.03;;
23802;SDS011;12082;51.786;6.018;2023-12-04T03:02:08;337.93;;;318.17;;
23802;SDS011;12082;51.786;6.018;2023-12-04T03:04:34;340.67;;;320.67;;
23802;SDS011;12082;51.786;6.018;2023-12-04T03:07:00;350.47;;;329.63;;
23802;SDS011;12082;51.786;6.018;2023-12-04T03:09:26;359.50;;;338.37;;
23802;SDS011;12082;51.786;6.018;2023-12-04T03:11:51;356.30;;;335.03;;
23802;SDS011;12082;51.786;6.018;2023-12-04T03:14:17;362.70;;;341.43;;
23802;SDS011;12082;51.786;6.018;2023-12-04T03:16:42;341.50;;;321.17;;
23802;SDS011;12082;51.786;6.018;2023-12-04T03:19:08;351.73;;;331.20;;
23802;SDS011;12082;51.786;6.018;2023-12-04T03:21:33;365.63;;;344.13;;
23802;SDS011;12082;51.786;6.018;2023-12-04T03:23:59;385.67;;;363.07;;
23802;SDS011;12082;51.786;6.018;2023-12-04T03:26:25;347.50;;;326.93;;
23802;SDS011;12082;51.786;6.018;2023-12-04T03:28:50;353.07;;;332.17;;
23802;SDS011;12082;51.786;6.018;2023-12-04T03:31:16;360.30;;;339.20;;
23802;SDS011;12082;51.786;6.018;2023-12-04T03:33:41;363.80;;;342.53;;
23802;SDS011;12082;51.786;6.018;2023-12-04T03:36:07;335.37;;;315.70;;
23802;SDS011;12082;51.786;6.018;2023-12-04T03:38:33;381.33;;;359.40;;
23802;SDS011;12082;51.786;6.018;2023-12-04T03:40:58;347.37;;;327.17;;
23802;SDS011;12082;51.786;6.018;2023-12-04T03:43:24;333.03;;;313.20;;
23802;SDS011;12082;51.786;6.018;2023-12-04T03:45:49;359.50;;;338.40;;
23802;SDS011;12082;51.786;6.018;2023-12-04T03:48:15;328.53;;;309.27;;
23802;SDS011;12082;51.786;6.018;2023-12-04T03:50:40;342.40;;;322.47;;
23802;SDS011;12082;51.786;6.018;2023-12-04T03:53:06;363.70;;;342.70;;
23802;SDS011;12082;51.786;6.018;2023-12-04T03:55:32;346.47;;;326.67;;
23802;SDS011;12082;51.786;6.018;2023-12-04T03:57:57;344.20;;;324.43;;
23802;SDS011;12082;51.786;6.018;2023-12-04T04:00:24;353.87;;;333.63;;
23802;SDS011;12082;51.786;6.018;2023-12-04T04:02:49;357.13;;;336.80;;
23802;SDS011;12082;51.786;6.018;2023-12-04T04:05:15;345.10;;;325.70;;
23802;SDS011;12082;51.786;6.018;2023-12-04T04:07:40;339.50;;;320.30;;
23802;SDS011;12082;51.786;6.018;2023-12-04T04:10:06;361.73;;;339.60;;
23802;SDS011;12082;51.786;6.018;2023-12-04T04:12:33;345.70;;;326.23;;
23802;SDS011;12082;51.786;6.018;2023-12-04T04:14:58;374.93;;;353.57;;
23802;SDS011;12082;51.786;6.018;2023-12-04T04:17:24;359.37;;;339.53;;
23802;SDS011;12082;51.786;6.018;2023-12-04T04:19:51;365.20;;;345.00;;
23802;SDS011;12082;51.786;6.018;2023-12-04T04:22:17;353.20;;;333.70;;
23802;SDS011;12082;51.786;6.018;2023-12-04T04:24:43;360.37;;;340.40;;
23802;SDS011;12082;51.786;6.018;2023-12-04T04:27:09;359.90;;;340.03;;
23802;SDS011;12082;51.786;6.018;2023-12-04T04:29:34;376.80;;;355.87;;
23802;SDS011;12082;51.786;6.018;2023-12-04T04:32:00;356.30;;;336.77;;
23802;SDS011;12082;51.786;6.018;2023-12-04T04:34:25;362.40;;;342.37;;
23802;SDS011;12082;51.786;6.018;2023-12-04T04:36:51;351.60;;;332.37;;
23802;SDS011;12082;51.786;6.018;2023-12-04T04:39:16;365.07;;;344.93;;
23802;SDS011;12082;51.786;6.018;2023-12-04T04:41:42;352.77;;;333.60;;
23802;SDS011;12082;51.786;6.018;2023-12-04T04:44:08;365.37;;;345.30;;
23802;SDS011;12082;51.786;6.018;2023-12-04T04:46:34;353.80;;;334.50;;
23802;SDS011;12082;51.786;6.018;2023-12-04T04:48:59;362.63;;;342.73;;
23802;SDS011;12082;51.786;6.018;2023-12-04T04:51:25;354.17;;;334.83;;
23802;SDS011;12082;51.786;6.018;2023-12-04T04:53:52;353.77;;;334.30;;
23802;SDS011;12082;51.786;6.018;2023-12-04T04:56:18;343.10;;;324.57;;
23802;SDS011;12082;51.786;6.018;2023-12-04T04:58:43;357.53;;;337.77;;
23802;SDS011;12082;51.786;6.018;2023-12-04T05:01:09;337.83;;;319.33;;
23802;SDS011;12082;51.786;6.018;2023-12-04T05:03:34;357.17;;;337.63;;
23802;SDS011;12082;51.786;6.018;2023-12-04T05:06:00;364.50;;;344.47;;
23802;SDS011;12082;51.786;6.018;2023-12-04T05:08:25;340.40;;;322.17;;
23802;SDS011;12082;51.786;6.018;2023-12-04T05:10:51;360.97;;;341.47;;
23802;SDS011;12082;51.786;6.018;2023-12-04T05:13:17;352.13;;;333.10;;
23802;SDS011;12082;51.786;6.018;2023-12-04T05:15:42;356.23;;;336.73;;
23802;SDS011;12082;51.786;6.018;2023-12-04T05:18:08;370.87;;;350.50;;
23802;SDS011;12082;51.786;6.018;2023-12-04T05:20:33;341.17;;;323.03;;
23802;SDS011;12082;51.786;6.018;2023-12-04T05:22:59;331.03;;;313.50;;
23802;SDS011;12082;51.786;6.018;2023-12-04T05:25:24;330.03;;;312.97;;
23802;SDS011;12082;51.786;6.018;2023-12-04T05:27:50;352.80;;;333.93;;
23802;SDS011;12082;51.786;6.018;2023-12-04T05:30:15;331.23;;;313.83;;
23802;SDS011;12082;51.786;6.018;2023-12-04T05:32:41;338.17;;;320.03;;
23802;SDS011;12082;51.786;6.018;2023-12-04T05:35:07;345.63;;;327.20;;
23802;SDS011;12082;51.786;6.018;2023-12-04T05:37:32;334.77;;;316.77;;
23802;SDS011;12082;51.786;6.018;2023-12-04T05:39:58;341.37;;;322.17;;
23802;SDS011;12082;51.786;6.018;2023-12-04T05:42:23;332.57;;;314.90;;
23802;SDS011;12082;51.786;6.018;2023-12-04T05:44:49;332.10;;;314.43;;
23802;SDS011;12082;51.786;6.018;2023-12-04T05:47:14;322.77;;;305.73;;
23802;SDS011;12082;51.786;6.018;2023-12-04T05:49:40;327.70;;;309.90;;
23802;SDS011;12082;51.786;6.018;2023-12-04T05:52:06;331.37;;;313.57;;
23802;SDS011;12082;51.786;6.018;2023-12-04T05:54:32;328.50;;;311.10;;
23802;SDS011;12082;51.786;6.018;2023-12-04T05:56:57;320.40;;;303.23;;
23802;SDS011;12082;51.786;6.018;2023-12-04T05:59:23;327.73;;;309.60;;
23802;SDS011;12082;51.786;6.018;2023-12-04T06:01:49;348.37;;;329.00;;
23802;SDS011;12082;51.786;6.018;2023-12-04T06:04:14;326.83;;;308.80;;
23802;SDS011;12082;51.786;6.018;2023-12-04T06:06:40;353.90;;;333.63;;
23802;SDS011;12082;51.786;6.018;2023-12-04T06:09:05;333.47;;;314.93;;
23802;SDS011;12082;51.786;6.018;2023-12-04T06:11:31;343.53;;;324.43;;
23802;SDS011;12082;51.786;6.018;2023-12-04T06:13:57;353.17;;;333.30;;
23802;SDS011;12082;51.786;6.018;2023-12-04T06:16:23;362.83;;;342.57;;
23802;SDS011;12082;51.786;6.018;2023-12-04T06:18:48;356.33;;;336.47;;
23802;SDS011;12082;51.786;6.018;2023-12-04T06:21:23;366.77;;;345.60;;
23802;SDS011;12082;51.786;6.018;2023-12-04T06:23:49;366.67;;;345.77;;
23802;SDS011;12082;51.786;6.018;2023-12-04T06:26:14;374.73;;;353.43;;
23802;SDS011;12082;51.786;6.018;2023-12-04T06:28:42;374.27;;;352.40;;
23802;SDS011;12082;51.786;6.018;2023-12-04T06:31:08;399.63;;;376.13;;
23802;SDS011;12082;51.786;6.018;2023-12-04T06:33:35;397.07;;;373.67;;
23802;SDS011;12082;51.786;6.018;2023-12-04T06:36:01;373.50;;;352.27;;
23802;SDS011;12082;51.786;6.018;2023-12-04T06:38:27;377.33;;;356.00;;
23802;SDS011;12082;51.786;6.018;2023-12-04T06:40:56;370.80;;;349.60;;
23802;SDS011;12082;51.786;6.018;2023-12-04T06:43:22;388.83;;;365.70;;
23802;SDS011;12082;51.786;6.018;2023-12-04T06:45:48;414.80;;;389.23;;
23802;SDS011;12082;51.786;6.018;2023-12-04T06:48:14;380.33;;;358.47;;
23802;SDS011;12082;51.786;6.018;2023-12-04T06:50:40;377.30;;;355.27;;
23802;SDS011;12082;51.786;6.018;2023-12-04T06:53:06;372.23;;;350.57;;
23802;SDS011;12082;51.786;6.018;2023-12-04T06:55:31;363.73;;;342.67;;
23802;SDS011;12082;51.786;6.018;2023-12-04T06:57:57;412.10;;;386.07;;
23802;SDS011;12082;51.786;6.018;2023-12-04T07:00:22;380.53;;;357.80;;
23802;SDS011;12082;51.786;6.018;2023-12-04T07:02:48;426.43;;;399.00;;
23802;SDS011;12082;51.786;6.018;2023-12-04T07:05:15;409.33;;;384.03;;
23802;SDS011;12082;51.786;6.018;2023-12-04T07:07:40;399.73;;;374.87;;
23802;SDS011;12082;51.786;6.018;2023-12-04T07:10:07;416.67;;;390.17;;
23802;SDS011;12082;51.786;6.018;2023-12-04T07:12:32;396.50;;;371.83;;
23802;SDS011;12082;51.786;6.018;2023-12-04T07:14:58;364.27;;;342.40;;
23802;SDS011;12082;51.786;6.018;2023-12-04T07:17:23;401.03;;;376.03;;
23802;SDS011;12082;51.786;6.018;2023-12-04T07:19:49;380.00;;;356.80;;
23802;SDS011;12082;51.786;6.018;2023-12-04T07:22:15;416.80;;;389.27;;
23802;SDS011;12082;51.786;6.018;2023-12-04T07:24:40;390.77;;;365.00;;
23802;SDS011;12082;51.786;6.018;2023-12-04T07:27:06;423.20;;;394.40;;
23802;SDS011;12082;51.786;6.018;2023-12-04T07:29:31;396.03;;;369.73;;
23802;SDS011;12082;51.786;6.018;2023-12-04T07:31:57;414.13;;;385.90;;
23802;SDS011;12082;51.786;6.018;2023-12-04T07:34:23;424.47;;;395.33;;
23802;SDS011;12082;51.786;6.018;2023-12-04T07:36:49;381.13;;;355.60;;
23802;SDS011;12082;51.786;6.018;2023-12-04T07:39:15;458.27;;;426.57;;
23802;SDS011;12082;51.786;6.018;2023-12-04T07:41:41;434.10;;;403.13;;
23802;SDS011;12082;51.786;6.018;2023-12-04T07:44:06;416.97;;;388.33;;
23802;SDS011;12082;51.786;6.018;2023-12-04T07:46:33;448.63;;;416.57;;
23802;SDS011;12082;51.786;6.018;2023-12-04T07:48:59;446.97;;;414.57;;
23802;SDS011;12082;51.786;6.018;2023-12-04T07:51:24;402.23;;;374.43;;
23802;SDS011;12082;51.786;6.018;2023-12-04T07:53:50;413.00;;;384.13;;
23802;SDS011;12082;51.786;6.018;2023-12-04T07:56:15;352.40;;;328.40;;
23802;SDS011;12082;51.786;6.018;2023-12-04T07:58:41;413.37;;;383.60;;
23802;SDS011;12082;51.786;6.018;2023-12-04T08:01:06;399.10;;;370.07;;
23802;SDS011;12082;51.786;6.018;2023-12-04T08:03:32;385.30;;;358.33;;
23802;SDS011;12082;51.786;6.018;2023-12-04T08:05:58;419.70;;;389.00;;
23802;SDS011;12082;51.786;6.018;2023-12-04T08:08:23;374.17;;;347.53;;
23802;SDS011;12082;51.786;6.018;2023-12-04T08:10:49;390.40;;;362.40;;
23802;SDS011;12082;51.786;6.018;2023-12-04T08:13:15;374.07;;;347.47;;
23802;SDS011;12082;51.786;6.018;2023-12-04T08:15:41;370.53;;;344.20;;
23802;SDS011;12082;51.786;6.018;2023-12-04T08:18:07;397.60;;;369.13;;
23802;SDS011;12082;51.786;6.018;2023-12-04T08:20:33;401.77;;;371.93;;
23802;SDS011;12082;51.786;6.018;2023-12-04T08:22:58;398.37;;;368.47;;
23802;SDS011;12082;51.786;6.018;2023-12-04T08:25:24;408.60;;;378.33;;
23802;SDS011;12082;51.786;6.018;2023-12-04T08:27:49;405.60;;;375.70;;
23802;SDS011;12082;51.786;6.018;2023-12-04T08:30:16;399.37;;;370.17;;
23802;SDS011;12082;51.786;6.018;2023-12-04T08:32:41;358.93;;;332.83;;
23802;SDS011;12082;51.786;6.018;2023-12-04T08:35:07;415.30;;;384.23;;
23802;SDS011;12082;51.786;6.018;2023-12-04T08:37:33;413.43;;;382.87;;
23802;SDS011;12082;51.786;6.018;2023-12-04T08:39:58;390.37;;;360.87;;
23802;SDS011;12082;51.786;6.018;2023-12-04T08:42:24;347.37;;;321.80;;
23802;SDS011;12082;51.786;6.018;2023-12-04T08:44:49;372.87;;;344.60;;
23802;SDS011;12082;51.786;6.018;2023-12-04T08:47:15;381.20;;;352.50;;
23802;SDS011;12082;51.786;6.018;2023-12-04T08:49:40;373.27;;;344.23;;
23802;SDS011;12082;51.786;6.018;2023-12-04T08:52:06;371.50;;;342.67;;
23802;SDS011;12082;51.786;6.018;2023-12-04T08:54:32;331.63;;;306.10;;
23802;SDS011;12082;51.786;6.018;2023-12-04T08:56:58;387.77;;;357.33;;
23802;SDS011;12082;51.786;6.018;2023-12-04T08:59:23;369.60;;;340.93;;
23802;SDS011;12082;51.786;6.018;2023-12-04T09:01:49;345.87;;;318.53;;
23802;SDS011;12082;51.786;6.018;2023-12-04T09:04:14;377.73;;;348.20;;
23802;SDS011;12082;51.786;6.018;2023-12-04T09:06:40;365.30;;;336.33;;
23802;SDS011;12082;51.786;6.018;2023-12-04T09:09:05;414.90;;;381.80;;
23802;SDS011;12082;51.786;6.018;2023-12-04T09:11:31;436.10;;;401.03;;
23802;SDS011;12082;51.786;6.018;2023-12-04T09:13:56;380.23;;;350.13;;
23802;SDS011;12082;51.786;6.018;2023-12-04T09:16:22;448.97;;;412.80;;
23802;SDS011;12082;51.786;6.018;2023-12-04T09:18:48;411.47;;;379.10;;
23802;SDS011;12082;51.786;6.018;2023-12-04T09:21:14;398.93;;;367.40;;
23802;SDS011;12082;51.786;6.018;2023-12-04T09:23:39;390.17;;;360.33;;
23802;SDS011;12082;51.786;6.018;2023-12-04T09:26:05;401.87;;;370.47;;
23802;SDS011;12082;51.786;6.018;2023-12-04T09:28:31;369.27;;;340.60;;
23802;SDS011;12082;51.786;6.018;2023-12-04T09:30:56;402.17;;;370.87;;
23802;SDS011;12082;51.786;6.018;2023-12-04T09:33:22;369.80;;;341.87;;
23802;SDS011;12082;51.786;6.018;2023-12-04T09:35:47;401.10;;;371.23;;
23802;SDS011;12082;51.786;6.018;2023-12-04T09:38:13;388.40;;;360.03;;
23802;SDS011;12082;51.786;6.018;2023-12-04T09:40:38;413.50;;;383.17;;
23802;SDS011;12082;51.786;6.018;2023-12-04T09:43:05;385.27;;;357.10;;
23802;SDS011;12082;51.786;6.018;2023-12-04T09:45:31;421.90;;;389.97;;
23802;SDS011;12082;51.786;6.018;2023-12-04T09:47:57;461.77;;;426.50;;
23802;SDS011;12082;51.786;6.018;2023-12-04T09:50:24;425.53;;;394.27;;
23802;SDS011;12082;51.786;6.018;2023-12-04T09:52:49;431.57;;;399.73;;
23802;SDS011;12082;51.786;6.018;2023-12-04T09:55:16;446.07;;;413.53;;
23802;SDS011;12082;51.786;6.018;2023-12-04T09:57:43;464.93;;;430.97;;
23802;SDS011;12082;51.786;6.018;2023-12-04T10:00:10;448.83;;;415.57;;
23802;SDS011;12082;51.786;6.018;2023-12-04T10:02:38;459.90;;;425.90;;
23802;SDS011;12082;51.786;6.018;2023-12-04T10:05:04;468.23;;;432.90;;
23802;SDS011;12082;51.786;6.018;2023-12-04T10:07:31;530.87;;;490.13;;
23802;SDS011;12082;51.786;6.018;2023-12-04T10:09:56;458.60;;;423.23;;
23802;SDS011;12082;51.786;6.018;2023-12-04T10:12:22;469.23;;;431.70;;
23802;SDS011;12082;51.786;6.018;2023-12-04T10:15:07;448.27;;;414.03;;
23802;SDS011;12082;51.786;6.018;2023-12-04T10:17:37;509.07;;;469.80;;
23802;SDS011;12082;51.786;6.018;2023-12-04T10:20:13;483.33;;;445.87;;
23802;SDS011;12082;51.786;6.018;2023-12-04T10:22:53;496.40;;;457.97;;
23802;SDS011;12082;51.786;6.018;2023-12-04T10:25:23;524.03;;;483.63;;
23802;SDS011;12082;51.786;6.018;2023-12-04T10:27:51;502.20;;;463.57;;
23802;SDS011;12082;51.786;6.018;2023-12-04T10:30:22;462.60;;;427.87;;
23802;SDS011;12082;51.786;6.018;2023-12-04T10:32:55;453.83;;;419.00;;
23802;SDS011;12082;51.786;6.018;2023-12-04T10:35:25;413.30;;;382.53;;
23802;SDS011;12082;51.786;6.018;2023-12-04T10:37:55;455.47;;;421.20;;
23802;SDS011;12082;51.786;6.018;2023-12-04T10:40:27;446.07;;;412.30;;
23802;SDS011;12082;51.786;6.018;2023-12-04T10:43:09;438.73;;;405.67;;
23802;SDS011;12082;51.786;6.018;2023-12-04T10:45:38;498.30;;;460.50;;
23802;SDS011;12082;51.786;6.018;2023-12-04T10:48:05;473.47;;;438.63;;
23802;SDS011;12082;51.786;6.018;2023-12-04T10:50:32;458.60;;;424.40;;
23802;SDS011;12082;51.786;6.018;2023-12-04T10:53:05;459.80;;;425.13;;
23802;SDS011;12082;51.786;6.018;2023-12-04T10:55:32;434.73;;;401.67;;
23802;SDS011;12082;51.786;6.018;2023-12-04T10:58:02;487.47;;;449.90;;
23802;SDS011;12082;51.786;6.018;2023-12-04T11:00:30;441.97;;;408.70;;
23802;SDS011;12082;51.786;6.018;2023-12-04T11:03:00;428.07;;;396.43;;
23802;SDS011;12082;51.786;6.018;2023-12-04T11:05:38;432.93;;;401.17;;
23802;SDS011;12082;51.786;6.018;2023-12-04T11:08:06;435.20;;;403.17;;
23802;SDS011;12082;51.786;6.018;2023-12-04T11:10:33;440.03;;;406.83;;
23802;SDS011;12082;51.786;6.018;2023-12-04T11:13:13;451.10;;;416.70;;
23802;SDS011;12082;51.786;6.018;2023-12-04T11:15:43;482.67;;;446.63;;
23802;SDS011;12082;51.786;6.018;2023-12-04T11:18:13;481.40;;;445.23;;
23802;SDS011;12082;51.786;6.018;2023-12-04T11:20:58;408.87;;;378.60;;
23802;SDS011;12082;51.786;6.018;2023-12-04T11:23:29;507.33;;;468.47;;
23802;SDS011;12082;51.786;6.018;2023-12-04T11:25:56;420.03;;;388.83;;
23802;SDS011;12082;51.786;6.018;2023-12-04T11:28:23;428.37;;;397.03;;
23802;SDS011;12082;51.786;6.018;2023-12-04T11:30:50;445.37;;;412.47;;
23802;SDS011;12082;51.786;6.018;2023-12-04T11:33:16;446.13;;;413.20;;
23802;SDS011;12082;51.786;6.018;2023-12-04T11:35:43;445.87;;;413.50;;
23802;SDS011;12082;51.786;6.018;2023-12-04T11:38:12;440.80;;;408.73;;
23802;SDS011;12082;51.786;6.018;2023-12-04T11:40:39;455.37;;;422.57;;
23802;SDS011;12082;51.786;6.018;2023-12-04T11:43:40;415.97;;;386.10;;
23802;SDS011;12082;51.786;6.018;2023-12-04T11:46:09;473.60;;;439.00;;
23802;SDS011;12082;51.786;6.018;2023-12-04T11:48:38;493.07;;;456.80;;
23802;SDS011;12082;51.786;6.018;2023-12-04T11:51:07;428.40;;;398.07;;
23802;SDS011;12082;51.786;6.018;2023-12-04T11:53:37;455.87;;;422.73;;
23802;SDS011;12082;51.786;6.018;2023-12-04T11:56:10;459.27;;;426.00;;
23802;SDS011;12082;51.786;6.018;2023-12-04T11:58:43;427.10;;;397.27;;
23802;SDS011;12082;51.786;6.018;2023-12-04T12:01:09;395.40;;;368.57;;
23802;SDS011;12082;51.786;6.018;2023-12-04T12:03:35;455.30;;;423.13;;
23802;SDS011;12082;51.786;6.018;2023-12-04T12:06:01;437.60;;;406.90;;
23802;SDS011;12082;51.786;6.018;2023-12-04T12:08:28;447.27;;;415.87;;
23802;SDS011;12082;51.786;6.018;2023-12-04T12:10:54;375.80;;;351.13;;
23802;SDS011;12082;51.786;6.018;2023-12-04T12:13:21;421.93;;;393.17;;
23802;SDS011;12082;51.786;6.018;2023-12-04T12:15:47;395.97;;;369.93;;
23802;SDS011;12082;51.786;6.018;2023-12-04T12:18:15;445.90;;;415.33;;
23802;SDS011;12082;51.786;6.018;2023-12-04T12:20:41;343.10;;;321.07;;
23802;SDS011;12082;51.786;6.018;2023-12-04T12:23:07;415.80;;;382.80;;
23802;SDS011;12082;51.786;6.018;2023-12-04T12:25:34;385.37;;;359.90;;
23802;SDS011;12082;51.786;6.018;2023-12-04T12:28:03;377.77;;;353.23;;
23802;SDS011;12082;51.786;6.018;2023-12-04T12:30:29;360.07;;;336.87;;
23802;SDS011;12082;51.786;6.018;2023-12-04T12:32:54;364.17;;;341.10;;
23802;SDS011;12082;51.786;6.018;2023-12-04T12:35:20;394.93;;;369.40;;
23802;SDS011;12082;51.786;6.018;2023-12-04T12:37:45;386.43;;;360.83;;
23802;SDS011;12082;51.786;6.018;2023-12-04T12:40:11;407.60;;;380.73;;
23802;SDS011;12082;51.786;6.018;2023-12-04T12:42:37;381.57;;;356.57;;
23802;SDS011;12082;51.786;6.018;2023-12-04T12:45:06;414.90;;;386.93;;
23802;SDS011;12082;51.786;6.018;2023-12-04T12:47:35;403.37;;;376.20;;
23802;SDS011;12082;51.786;6.018;2023-12-04T12:50:00;399.53;;;372.53;;
23802;SDS011;12082;51.786;6.018;2023-12-04T12:52:27;388.23;;;362.23;;
23802;SDS011;12082;51.786;6.018;2023-12-04T12:54:53;361.90;;;338.63;;
23802;SDS011;12082;51.786;6.018;2023-12-04T12:57:18;433.83;;;401.30;;
23802;SDS011;12082;51.786;6.018;2023-12-04T12:59:44;389.93;;;363.53;;
23802;SDS011;12082;51.786;6.018;2023-12-04T13:02:10;366.73;;;342.53;;
23802;SDS011;12082;51.786;6.018;2023-12-04T13:04:42;398.87;;;370.83;;
23802;SDS011;12082;51.786;6.018;2023-12-04T13:07:09;380.83;;;355.87;;
23802;SDS011;12082;51.786;6.018;2023-12-04T13:09:36;392.57;;;365.20;;
23802;SDS011;12082;51.786;6.018;2023-12-04T13:12:05;350.93;;;327.50;;
23802;SDS011;12082;51.786;6.018;2023-12-04T13:14:31;344.47;;;321.87;;
23802;SDS011;12082;51.786;6.018;2023-12-04T13:16:59;344.20;;;322.17;;
23802;SDS011;12082;51.786;6.018;2023-12-04T13:19:26;328.80;;;307.00;;
23802;SDS011;12082;51.786;6.018;2023-12-04T13:21:52;334.13;;;311.57;;
23802;SDS011;12082;51.786;6.018;2023-12-04T13:24:17;326.80;;;304.70;;
23802;SDS011;12082;51.786;6.018;2023-12-04T13:55:27;2.20;;;1.70;;
23802;SDS011;12082;51.786;6.018;2023-12-04T13:58:28;3.37;;;1.63;;
23802;SDS011;12082;51.786;6.018;2023-12-04T14:01:07;3.20;;;1.80;;
23802;SDS011;12082;51.786;6.018;2023-12-04T14:10:51;11.57;;;6.70;;
23802;SDS011;12082;51.786;6.018;2023-12-04T14:13:17;10.73;;;7.17;;
23802;SDS011;12082;51.786;6.018;2023-12-04T14:15:43;10.73;;;7.13;;
23802;SDS011;12082;51.786;6.018;2023-12-04T14:18:09;11.23;;;7.47;;
23802;SDS011;12082;51.786;6.018;2023-12-04T14:20:34;9.43;;;6.63;;
23802;SDS011;12082;51.786;6.018;2023-12-04T14:23:00;9.77;;;6.47;;
23802;SDS011;12082;51.786;6.018;2023-12-04T14:25:26;12.93;;;7.77;;
23802;SDS011;12082;51.786;6.018;2023-12-04T14:27:51;16.37;;;8.33;;
23802;SDS011;12082;51.786;6.018;2023-12-04T14:30:17;12.37;;;7.57;;
23802;SDS011;12082;51.786;6.018;2023-12-04T14:32:42;13.00;;;8.07;;